Time;durP1;ratioP1;P1;durP2;ratioP2;P2;SDS_P1;SDS_P2;PMS_P1;PMS_P2;Temp;Humidity;BMP_temperature;BMP_pressure;BME280_temperature;BME280_humidity;BME280_pressure;Samples;Min_cycle;Max_cycle;Signal;HPM_P1;HPM_P2
2022/04/15 00:00:06;;;;;;;10.38;6.82;;;;;;;6.32;65.62;100659.62;4500235;31;20526;-68
2022/04/15 00:02:37;;;;;;;13.68;5.15;;;;;;;6.22;68.38;100656.94;4500187;31;20103;-68
2022/04/15 00:05:29;;;;;;;12.15;4.80;;;;;;;6.12;65.01;100655.09;4500459;31;20130;-68
2022/04/15 00:07:52;;;;;;;12.73;5.80;;;;;;;6.09;65.48;100652.44;4500210;31;20489;-68
2022/04/15 00:10:20;;;;;;;15.50;6.43;;;;;;;6.12;65.74;100646.38;4500059;31;20126;-68
2022/04/15 00:12:47;;;;;;;10.38;5.62;;;;;;;6.14;65.22;100648.13;4500058;31;20190;-68
2022/04/15 00:15:15;;;;;;;14.38;5.47;;;;;;;6.14;64.44;100645.50;4500172;31;20083;-68
2022/04/15 00:17:42;;;;;;;14.27;5.43;;;;;;;6.15;64.85;100642.06;4485574;31;20514;-68
2022/04/15 00:20:10;;;;;;;9.55;5.45;;;;;;;6.08;65.83;100641.94;4502547;31;20436;-68
2022/04/15 00:22:37;;;;;;;10.40;5.20;;;;;;;6.03;66.74;100639.28;4502381;31;20183;-68
2022/04/15 00:25:05;;;;;;;10.15;5.03;;;;;;;5.98;66.66;100635.75;4502172;31;20109;-68
2022/04/15 00:27:34;;;;;;;10.48;5.10;;;;;;;5.95;67.90;100643.56;4502338;31;20103;-68
2022/04/15 00:30:01;;;;;;;8.52;4.75;;;;;;;6.02;66.86;100636.66;4502503;31;20099;-68
2022/04/15 00:32:28;;;;;;;8.45;5.20;;;;;;;6.20;65.36;100645.56;4502312;31;20515;-68
2022/04/15 00:34:56;;;;;;;7.22;4.82;;;;;;;6.19;66.90;100640.34;4502391;31;20083;-68
2022/04/15 00:37:23;;;;;;;11.68;4.62;;;;;;;6.08;67.97;100637.63;4502335;31;20083;-68
2022/04/15 00:39:51;;;;;;;10.45;5.12;;;;;;;5.96;68.96;100638.34;4502307;31;20160;-68
2022/04/15 00:42:22;;;;;;;7.00;5.18;;;;;;;5.97;70.44;100636.59;4502264;31;20104;-68
2022/04/15 00:44:56;;;;;;;9.43;4.93;;;;;;;5.84;70.24;100634.69;4502541;31;20102;-68
2022/04/15 00:47:43;;;;;;;7.75;4.85;;;;;;;6.07;66.45;100635.84;4502225;31;20149;-68
2022/04/15 00:50:10;;;;;;;9.68;4.60;;;;;;;6.06;67.37;100631.47;4502262;31;20127;-68
2022/04/15 00:52:40;;;;;;;6.70;4.07;;;;;;;6.17;65.24;100631.59;4502358;31;20125;-68
2022/04/15 00:55:08;;;;;;;9.30;4.35;;;;;;;6.27;64.52;100632.56;4502316;31;20139;-68
2022/04/15 00:57:39;;;;;;;10.23;5.40;;;;;;;6.24;64.51;100628.16;4502138;31;20125;-68
2022/04/15 01:00:09;;;;;;;12.18;5.30;;;;;;;6.07;67.82;100627.13;4502228;31;20118;-68
2022/04/15 01:02:37;;;;;;;11.85;4.95;;;;;;;5.92;68.49;100622.56;4502040;31;20535;-68
2022/04/15 01:05:08;;;;;;;8.57;4.85;;;;;;;5.82;69.44;100628.56;4502171;31;20095;-68
2022/04/15 01:07:41;;;;;;;9.43;4.87;;;;;;;5.71;68.38;100618.84;4502414;31;20129;-68
2022/04/15 01:10:11;;;;;;;8.95;5.35;;;;;;;5.55;70.79;100616.03;4487091;31;20131;-68
2022/04/15 01:12:40;;;;;;;10.75;5.05;;;;;;;5.48;69.55;100615.09;4502078;31;20514;-68
2022/04/15 01:15:10;;;;;;;8.50;4.57;;;;;;;5.48;68.59;100613.37;4501909;31;20567;-68
2022/04/15 01:17:38;;;;;;;11.52;4.70;;;;;;;5.56;71.01;100610.84;4502082;31;20606;-68
2022/04/15 01:20:08;;;;;;;11.93;5.35;;;;;;;5.66;69.63;100612.72;4502038;31;20099;-68
2022/04/15 01:22:41;;;;;;;17.90;5.22;;;;;;;5.66;70.11;100604.00;4501963;31;20110;-68
2022/04/15 01:25:16;;;;;;;11.07;5.12;;;;;;;5.45;70.85;100605.47;4501869;31;20084;-68
2022/04/15 01:27:46;;;;;;;9.77;5.10;;;;;;;5.38;72.15;100603.66;4502030;31;20088;-68
2022/04/15 01:30:17;;;;;;;8.63;4.80;;;;;;;5.39;72.65;100599.31;4500745;31;20096;-68
2022/04/15 01:32:45;;;;;;;13.62;5.37;;;;;;;5.53;70.10;100600.34;4502150;31;20088;-68
2022/04/15 01:35:16;;;;;;;8.43;4.75;;;;;;;5.47;70.65;100595.03;4501863;31;20109;-68
2022/04/15 01:37:45;;;;;;;9.75;4.72;;;;;;;5.43;71.28;100596.72;4501913;31;20110;-68
2022/04/15 01:40:14;;;;;;;14.02;5.22;;;;;;;5.41;71.53;100594.97;4501772;31;20108;-68
2022/04/15 01:42:43;;;;;;;11.02;5.37;;;;;;;5.23;74.30;100593.00;4501883;31;20126;-68
2022/04/15 01:45:11;;;;;;;12.07;5.40;;;;;;;5.25;73.98;100594.75;4501745;31;20092;-68
2022/04/15 01:47:38;;;;;;;9.68;5.32;;;;;;;5.08;75.20;100590.19;4502059;31;20083;-68
2022/04/15 01:50:07;;;;;;;10.35;5.57;;;;;;;4.96;75.02;100599.59;4501801;31;20107;-68
2022/04/15 01:52:35;;;;;;;8.82;5.20;;;;;;;4.94;75.21;100601.28;4501776;31;20164;-68
2022/04/15 01:55:03;;;;;;;11.30;5.35;;;;;;;4.83;78.03;100605.50;4501697;31;20083;-68
2022/04/15 01:57:30;;;;;;;8.95;4.85;;;;;;;4.74;77.12;100600.16;4501803;31;20083;-68
2022/04/15 01:59:58;;;;;;;11.80;5.18;;;;;;;4.78;75.76;100600.22;4501859;31;20089;-68
2022/04/15 02:02:25;;;;;;;7.57;5.25;;;;;;;4.79;75.39;100601.09;4501708;31;20130;-68
2022/04/15 02:04:54;;;;;;;11.20;5.43;;;;;;;4.75;76.80;100602.78;4501749;31;20780;-68
2022/04/15 02:07:21;;;;;;;11.85;5.43;;;;;;;4.77;75.60;100597.56;4501606;31;20079;-68
2022/04/15 02:09:48;;;;;;;13.15;5.95;;;;;;;4.78;75.71;100599.34;4501595;31;20539;-68
2022/04/15 02:12:15;;;;;;;8.18;5.18;;;;;;;4.69;77.92;100594.84;4502007;31;20114;-68
2022/04/15 02:14:43;;;;;;;12.32;5.40;;;;;;;4.66;77.41;100594.78;4501659;31;20088;-68
2022/04/15 02:17:10;;;;;;;10.32;4.97;;;;;;;4.58;77.21;100593.78;4487064;31;20080;-68
2022/04/15 02:19:37;;;;;;;9.70;5.72;;;;;;;4.51;75.51;100594.56;4501496;31;20139;-68
2022/04/15 02:22:04;;;;;;;14.00;5.43;;;;;;;4.48;75.44;100594.50;4501706;31;20685;-68
2022/04/15 02:24:31;;;;;;;12.73;5.60;;;;;;;4.60;76.17;100592.09;4501390;31;20088;-68
2022/04/15 02:26:58;;;;;;;11.50;5.55;;;;;;;4.63;75.88;100591.25;4501689;31;20134;-68
2022/04/15 02:29:26;;;;;;;9.38;5.15;;;;;;;4.77;73.41;100588.03;4501389;31;20096;-68
2022/04/15 02:31:53;;;;;;;10.63;5.12;;;;;;;4.81;74.35;100586.34;4501598;31;20514;-68
2022/04/15 02:34:21;;;;;;;7.45;5.12;;;;;;;4.69;75.23;100579.19;4501492;31;20138;-68
2022/04/15 02:36:48;;;;;;;8.60;5.07;;;;;;;4.64;74.23;100580.84;4501466;31;20087;-68
2022/04/15 02:39:15;;;;;;;9.65;5.40;;;;;;;4.70;73.86;100580.06;4501385;31;20123;-68
2022/04/15 02:41:42;;;;;;;10.70;5.28;;;;;;;4.71;74.45;100577.47;4500804;31;20119;-68
2022/04/15 02:44:10;;;;;;;11.80;5.03;;;;;;;4.83;73.20;100578.50;4501274;31;20473;-68
2022/04/15 02:46:37;;;;;;;10.27;5.20;;;;;;;4.98;71.87;100576.09;4501342;31;20497;-68
2022/04/15 02:49:05;;;;;;;10.40;5.32;;;;;;;5.00;71.62;100574.41;4501255;31;20104;-68
2022/04/15 02:51:33;;;;;;;12.77;5.05;;;;;;;4.91;74.17;100582.09;4501625;31;20107;-68
2022/04/15 02:54:00;;;;;;;9.45;5.32;;;;;;;4.83;72.99;100575.91;4501146;31;20110;-68
2022/04/15 02:56:28;;;;;;;8.27;5.10;;;;;;;4.78;74.17;100573.22;4501527;31;20099;-68
2022/04/15 02:58:56;;;;;;;10.85;5.18;;;;;;;4.77;72.90;100571.44;4501230;31;20428;-68
2022/04/15 03:01:23;;;;;;;8.63;4.68;;;;;;;4.87;71.16;100572.47;4501206;31;20100;-68
2022/04/15 03:03:50;;;;;;;10.02;5.78;;;;;;;4.88;70.83;100561.19;4501135;31;20680;-68
2022/04/15 03:06:17;;;;;;;9.40;5.07;;;;;;;4.95;70.45;100578.69;4501361;31;20099;-68
2022/04/15 03:08:44;;;;;;;11.23;5.37;;;;;;;4.77;72.80;100571.44;4501039;31;20158;-68
2022/04/15 03:11:12;;;;;;;10.45;5.05;;;;;;;4.68;73.12;100569.59;4501047;31;20183;-68
2022/04/15 03:13:39;;;;;;;14.02;5.37;;;;;;;4.57;75.71;100572.91;4500979;31;20079;-68
2022/04/15 03:16:06;;;;;;;9.23;5.18;;;;;;;4.42;76.86;100578.78;4501211;31;20536;-68
2022/04/15 03:18:33;;;;;;;13.55;5.32;;;;;;;4.35;76.20;100576.88;4500823;31;20104;-68
2022/04/15 03:21:00;;;;;;;9.15;5.00;;;;;;;4.39;76.28;100578.72;4500827;31;20100;-68
2022/04/15 03:23:28;;;;;;;8.30;5.18;;;;;;;4.48;74.23;100582.31;4500773;31;20075;-68
2022/04/15 03:25:55;;;;;;;12.02;6.07;;;;;;;4.44;76.30;100582.25;4500713;31;20451;-68
2022/04/15 03:28:22;;;;;;;9.13;5.18;;;;;;;4.43;75.43;100577.91;4500684;31;20130;-68
2022/04/15 03:30:50;;;;;;;9.55;5.47;;;;;;;4.47;75.75;100582.31;4500765;31;20091;-68
2022/04/15 03:33:18;;;;;;;10.55;4.47;;;;;;;4.48;75.33;100586.66;4500715;31;20101;-68
2022/04/15 03:35:45;;;;;;;12.90;5.55;;;;;;;4.54;74.04;100586.78;4500662;31;20475;-68
2022/04/15 03:38:12;;;;;;;9.00;4.93;;;;;;;4.50;74.59;100577.16;4500611;31;20103;-68
2022/04/15 03:40:39;;;;;;;8.65;4.97;;;;;;;4.55;73.93;100575.47;4500676;31;20160;-68
2022/04/15 03:43:06;;;;;;;15.13;5.60;;;;;;;4.54;75.35;100577.22;4500528;31;20492;-68
2022/04/15 03:45:34;;;;;;;10.00;4.85;;;;;;;4.47;74.90;100571.88;4500458;31;20084;-68
2022/04/15 03:48:01;;;;;;;9.77;5.25;;;;;;;4.41;76.12;100574.38;4500434;31;20477;-68
2022/04/15 03:50:28;;;;;;;10.63;5.47;;;;;;;4.39;76.14;100574.38;4500429;31;20151;-68
2022/04/15 03:52:55;;;;;;;14.38;5.78;;;;;;;4.35;76.18;100571.66;4501314;31;20435;-68
2022/04/15 03:55:24;;;;;;;11.35;5.87;;;;;;;4.27;77.32;100571.53;4502621;31;20198;-68
2022/04/15 03:57:52;;;;;;;10.65;5.70;;;;;;;4.27;77.34;100568.94;4502665;31;20104;-68
2022/04/15 04:00:21;;;;;;;9.55;5.62;;;;;;;4.23;76.01;100568.00;4502671;31;20095;-68
2022/04/15 04:02:51;;;;;;;11.07;5.65;;;;;;;4.20;78.40;100569.69;4502589;31;20139;-68
2022/04/15 04:05:19;;;;;;;8.18;5.07;;;;;;;4.22;78.02;100566.25;4502529;31;20118;-68
2022/04/15 04:07:46;;;;;;;13.23;5.93;;;;;;;4.23;79.88;100567.13;4502707;31;20119;-68
2022/04/15 04:10:15;;;;;;;13.38;6.00;;;;;;;4.17;81.00;100567.94;4502621;31;20167;-68
2022/04/15 04:12:43;;;;;;;10.50;5.35;;;;;;;4.16;80.45;100568.75;4502714;31;20079;-68
2022/04/15 04:15:12;;;;;;;11.57;5.50;;;;;;;4.22;80.41;100563.66;4502495;31;20475;-68
2022/04/15 04:17:41;;;;;;;17.12;5.57;;;;;;;4.34;80.02;100555.16;4502434;31;20147;-68
2022/04/15 04:20:09;;;;;;;10.98;5.95;;;;;;;4.40;81.00;100559.59;4484777;31;565656;-68
2022/04/15 04:22:37;;;;;;;13.85;7.03;;;;;;;4.45;81.35;100563.13;4502511;31;20147;-68
2022/04/15 04:25:08;;;;;;;12.13;6.75;;;;;;;4.57;81.04;100552.91;4502158;31;20118;-68
2022/04/15 04:27:37;;;;;;;22.35;7.95;;;;;;;4.68;80.61;100558.28;4502617;31;20084;-68
2022/04/15 04:30:06;;;;;;;10.55;5.95;;;;;;;4.93;78.36;100562.13;4502328;31;20526;-68
2022/04/15 04:32:33;;;;;;;10.68;6.15;;;;;;;5.14;75.73;100570.25;4502595;31;20175;-68
2022/04/15 04:35:03;;;;;;;10.40;5.87;;;;;;;5.25;74.86;100571.25;4502511;31;20658;-68
2022/04/15 04:37:30;;;;;;;13.10;5.65;;;;;;;5.30;74.70;100573.03;4502414;31;20156;-68
2022/04/15 04:39:58;;;;;;;14.55;6.78;;;;;;;5.34;74.29;100574.88;4502286;31;20104;-68
2022/04/15 04:42:25;;;;;;;12.55;6.28;;;;;;;5.34;76.87;100567.03;4502192;31;20076;-68
2022/04/15 04:44:53;;;;;;;15.70;6.37;;;;;;;5.34;74.87;100565.28;4502229;31;20102;-68
2022/04/15 04:47:21;;;;;;;13.02;6.28;;;;;;;5.51;74.21;100574.19;4502212;31;20092;-68
2022/04/15 04:49:48;;;;;;;12.57;6.05;;;;;;;5.72;75.05;100572.66;4502224;31;20162;-68
2022/04/15 04:52:16;;;;;;;15.40;6.07;;;;;;;5.82;73.37;100577.13;4502445;31;20577;-68
2022/04/15 04:54:43;;;;;;;11.38;6.25;;;;;;;6.04;72.36;100580.00;4502173;31;20125;-68
2022/04/15 04:57:10;;;;;;;9.73;5.95;;;;;;;6.26;72.06;100587.22;4502109;31;20119;-68
2022/04/15 04:59:37;;;;;;;12.63;6.25;;;;;;;6.30;74.68;100582.87;4502255;31;20130;-68
2022/04/15 05:02:05;;;;;;;14.82;6.07;;;;;;;6.39;72.00;100585.56;4502167;31;20397;-68
2022/04/15 05:04:32;;;;;;;12.85;6.47;;;;;;;6.61;69.54;100584.88;4501961;31;20083;-68
2022/04/15 05:07:00;;;;;;;13.90;6.30;;;;;;;6.76;69.12;100588.47;4502117;31;20099;-68
2022/04/15 05:09:27;;;;;;;20.70;9.35;;;;;;;6.91;68.54;100594.66;4501959;31;20483;-68
2022/04/15 05:11:55;;;;;;;22.48;12.23;;;;;;;7.07;68.25;100593.03;4502056;31;20083;-68
2022/04/15 05:14:22;;;;;;;21.80;8.70;;;;;;;7.09;68.77;100586.03;4502281;31;20435;-68
2022/04/15 05:16:49;;;;;;;16.45;8.88;;;;;;;7.24;68.55;100589.59;4502124;31;20455;-68
2022/04/15 05:19:16;;;;;;;18.98;7.80;;;;;;;7.38;70.08;100590.53;4501962;31;20122;-68
2022/04/15 05:21:44;;;;;;;22.33;6.93;;;;;;;7.60;67.44;100592.41;4501878;31;20513;-68
2022/04/15 05:24:12;;;;;;;13.52;7.30;;;;;;;7.75;67.92;100591.56;4501759;31;20143;-68
2022/04/15 05:26:39;;;;;;;22.45;7.25;;;;;;;7.90;65.96;100591.59;4502025;31;20134;-68
2022/04/15 05:29:08;;;;;;;16.05;7.00;;;;;;;8.06;66.68;100594.28;4501988;31;20091;-68
2022/04/15 05:31:35;;;;;;;13.10;6.30;;;;;;;8.05;65.79;100598.62;4502020;31;20091;-68
2022/04/15 05:34:03;;;;;;;17.25;6.90;;;;;;;8.10;65.21;100594.28;4502031;31;20084;-68
2022/04/15 05:36:31;;;;;;;17.40;6.87;;;;;;;8.15;64.61;100599.53;4501900;31;20514;-68
2022/04/15 05:38:58;;;;;;;13.98;6.62;;;;;;;8.21;64.04;100596.03;4501872;31;20100;-68
2022/04/15 05:41:25;;;;;;;13.30;6.85;;;;;;;8.42;63.54;100605.72;4501974;31;20124;-68
2022/04/15 05:43:53;;;;;;;18.83;7.93;;;;;;;8.61;64.14;100600.44;4501374;31;20523;-68
2022/04/15 05:46:20;;;;;;;15.68;7.32;;;;;;;8.83;62.95;100597.78;4501648;31;20095;-68
2022/04/15 05:48:47;;;;;;;26.17;8.98;;;;;;;8.91;61.73;100593.44;4501846;31;20096;-68
2022/04/15 05:51:15;;;;;;;21.15;8.68;;;;;;;9.12;62.89;100588.97;4487079;31;20170;-68
2022/04/15 05:53:42;;;;;;;18.37;8.38;;;;;;;9.28;63.40;100588.94;4501708;31;20091;-68
2022/04/15 05:56:09;;;;;;;20.65;9.10;;;;;;;9.56;61.60;100600.22;4501792;31;20131;-68
2022/04/15 05:58:36;;;;;;;18.20;7.97;;;;;;;9.63;62.47;100597.56;4501884;31;20099;-68
2022/04/15 06:01:05;;;;;;;16.65;7.97;;;;;;;9.80;61.99;100593.09;4501880;31;20153;-68
2022/04/15 06:03:33;;;;;;;20.05;9.30;;;;;;;10.10;60.98;100592.03;4501660;31;20117;-68
2022/04/15 06:06:00;;;;;;;18.67;9.27;;;;;;;10.31;61.33;100593.69;4501622;31;20092;-68
2022/04/15 06:08:28;;;;;;;21.48;8.60;;;;;;;10.65;60.70;100599.56;4501700;31;20510;-68
2022/04/15 06:10:56;;;;;;;19.25;7.90;;;;;;;10.93;58.16;100586.13;4501573;31;20088;-68
2022/04/15 06:13:24;;;;;;;14.68;8.50;;;;;;;11.19;55.29;100591.09;4501619;31;20095;-68
2022/04/15 06:15:53;;;;;;;11.20;7.32;;;;;;;11.24;52.38;100595.47;4500818;31;20153;-68
2022/04/15 06:18:22;;;;;;;20.25;6.87;;;;;;;11.39;51.16;100602.31;4501627;31;20084;-68
2022/04/15 06:20:50;;;;;;;16.55;7.18;;;;;;;11.68;50.81;100604.59;4501630;31;20096;-68
2022/04/15 06:23:18;;;;;;;14.82;7.03;;;;;;;11.96;50.02;100599.84;4501592;31;20163;-67
2022/04/15 06:25:46;;;;;;;18.87;8.30;;;;;;;12.13;48.09;100598.75;4501384;31;20111;-66
2022/04/15 06:28:14;;;;;;;13.88;7.15;;;;;;;12.15;48.81;100597.78;4501654;31;20088;-67
2022/04/15 06:30:41;;;;;;;18.30;7.70;;;;;;;12.33;48.39;100599.31;4501539;31;20420;-66
2022/04/15 06:33:09;;;;;;;24.15;6.97;;;;;;;12.40;50.46;100593.03;4501664;31;20180;-66
2022/04/15 06:35:37;;;;;;;15.93;7.12;;;;;;;12.73;49.28;100598.66;4501441;31;20123;-66
2022/04/15 06:38:04;;;;;;;17.37;6.72;;;;;;;12.89;46.96;100592.16;4501614;31;20515;-66
2022/04/15 06:40:33;;;;;;;23.17;8.73;;;;;;;13.13;47.10;100601.44;4500990;31;20109;-67
2022/04/15 06:43:00;;;;;;;28.80;7.87;;;;;;;13.16;47.83;100597.88;4501318;31;20117;-66
2022/04/15 06:45:27;;;;;;;14.45;7.50;;;;;;;13.12;47.54;100596.19;4501320;31;20095;-67
2022/04/15 06:47:55;;;;;;;14.30;6.75;;;;;;;13.26;46.46;100594.19;4501287;31;20194;-67
2022/04/15 06:50:22;;;;;;;24.70;7.78;;;;;;;13.41;43.81;100594.78;4501395;31;20776;-67
2022/04/15 06:52:49;;;;;;;17.45;8.35;;;;;;;13.76;44.84;100591.38;4501332;31;20117;-67
2022/04/15 06:55:18;;;;;;;18.60;6.65;;;;;;;13.94;43.58;100590.13;4501158;31;20386;-66
2022/04/15 06:57:45;;;;;;;12.18;6.95;;;;;;;14.05;43.50;100591.59;4501142;31;20191;-67
2022/04/15 07:00:13;;;;;;;15.70;7.03;;;;;;;14.56;42.37;100587.78;4501065;31;20113;-67
2022/04/15 07:02:41;;;;;;;18.33;6.57;;;;;;;15.00;41.11;100575.16;4501190;31;20184;-67
2022/04/15 07:05:09;;;;;;;14.20;7.30;;;;;;;14.98;40.49;100576.97;4500892;31;20118;-67
2022/04/15 07:07:37;;;;;;;11.63;7.05;;;;;;;14.82;41.23;100587.13;4500980;31;20142;-67
2022/04/15 07:10:06;;;;;;;16.10;7.70;;;;;;;14.70;41.80;100584.75;4501014;31;20083;-67
2022/04/15 07:12:34;;;;;;;13.43;7.12;;;;;;;14.69;43.53;100591.00;4501053;31;20121;-67
2022/04/15 07:15:01;;;;;;;14.38;7.45;;;;;;;14.42;44.34;100587.25;4500844;31;20096;-66
2022/04/15 07:17:29;;;;;;;17.35;7.80;;;;;;;14.52;44.80;100584.34;4500887;31;20180;-67
2022/04/15 07:19:56;;;;;;;15.43;7.47;;;;;;;14.71;44.83;100595.34;4500977;31;20110;-67
2022/04/15 07:22:23;;;;;;;13.50;7.10;;;;;;;14.84;43.69;100601.22;4500700;31;20494;-67
2022/04/15 07:24:51;;;;;;;10.88;7.35;;;;;;;14.97;43.01;100597.31;4500368;31;20155;-67
2022/04/15 07:27:18;;;;;;;17.10;7.20;;;;;;;15.22;42.52;100596.66;4501832;31;20112;-67
2022/04/15 07:29:45;;;;;;;22.87;6.80;;;;;;;15.47;40.64;100603.00;4488045;31;20083;-67
2022/04/15 07:32:19;;;;;;;17.27;6.65;;;;;;;15.76;39.51;100601.34;4502663;31;20862;-67
2022/04/15 07:34:48;;;;;;;11.65;6.32;;;;;;;15.77;36.90;100600.44;4502910;31;20159;-67
2022/04/15 07:37:16;;;;;;;12.95;6.60;;;;;;;15.96;37.90;100595.41;4502747;31;20175;-67
2022/04/15 07:39:43;;;;;;;10.40;6.00;;;;;;;15.87;38.15;100601.03;4502649;31;20434;-67
2022/04/15 07:42:12;;;;;;;12.90;6.45;;;;;;;15.70;37.52;100599.75;4502711;31;20091;-67
2022/04/15 07:44:40;;;;;;;21.15;6.82;;;;;;;15.66;36.98;100603.41;4502511;31;20226;-67
2022/04/15 07:47:08;;;;;;;10.75;6.65;;;;;;;15.72;37.04;100602.34;4502634;31;20498;-67
2022/04/15 07:49:35;;;;;;;14.18;6.35;;;;;;;15.76;34.83;100607.53;4502709;31;20439;-67
2022/04/15 07:52:04;;;;;;;10.55;6.72;;;;;;;15.84;35.56;100609.09;4502540;31;20087;-67
2022/04/15 07:54:32;;;;;;;14.07;7.72;;;;;;;16.09;36.10;100614.53;4502557;31;20085;-67
2022/04/15 07:57:00;;;;;;;16.77;7.30;;;;;;;16.70;36.22;100615.19;4502575;31;20483;-67
2022/04/15 07:59:28;;;;;;;43.90;8.55;;;;;;;17.25;33.31;100618.66;4502648;31;20147;-67
2022/04/15 08:01:58;;;;;;;17.60;8.38;;;;;;;17.34;34.02;100618.31;4502525;31;20099;-67
2022/04/15 08:04:26;;;;;;;13.82;7.30;;;;;;;17.53;33.66;100623.87;4502352;31;20172;-67
2022/04/15 08:06:53;;;;;;;19.77;8.63;;;;;;;17.83;33.78;100621.88;4502589;31;20154;-67
2022/04/15 08:09:20;;;;;;;19.60;7.95;;;;;;;17.85;34.22;100624.50;4502523;31;20080;-67
2022/04/15 08:11:49;;;;;;;20.75;8.52;;;;;;;17.85;33.50;100624.50;4502449;31;20096;-67
2022/04/15 08:14:16;;;;;;;19.92;9.55;;;;;;;17.76;34.79;100620.34;4502175;31;20092;-67
2022/04/15 08:16:43;;;;;;;17.87;8.77;;;;;;;17.69;34.77;100619.69;4502349;31;20103;-67
2022/04/15 08:19:10;;;;;;;15.38;7.22;;;;;;;17.87;33.27;100617.28;4502348;31;20099;-67
2022/04/15 08:21:38;;;;;;;19.67;6.90;;;;;;;17.93;33.69;100619.72;4502469;31;20117;-67
2022/04/15 08:24:05;;;;;;;18.17;8.10;;;;;;;18.06;33.48;100618.31;4502168;31;20432;-67
2022/04/15 08:26:33;;;;;;;11.65;6.40;;;;;;;18.26;34.14;100627.31;4502350;31;20088;-67
2022/04/15 08:29:00;;;;;;;12.30;4.85;;;;;;;18.32;31.23;100614.62;4502254;31;20083;-67
2022/04/15 08:31:27;;;;;;;13.80;5.07;;;;;;;18.78;29.51;100611.88;4502300;31;20458;-67
2022/04/15 08:33:55;;;;;;;9.80;4.85;;;;;;;19.04;28.57;100597.41;4502246;31;20159;-67
2022/04/15 08:36:22;;;;;;;16.75;5.53;;;;;;;19.11;28.94;100602.41;4502388;31;20167;-67
2022/04/15 08:38:49;;;;;;;9.70;6.20;;;;;;;19.24;29.08;100600.09;4501624;31;20526;-67
2022/04/15 08:41:18;;;;;;;12.32;5.57;;;;;;;19.45;29.96;100606.28;4502294;31;20118;-67
2022/04/15 08:43:45;;;;;;;11.38;5.65;;;;;;;19.70;28.82;100597.16;4502042;31;20103;-67
2022/04/15 08:46:13;;;;;;;12.07;5.22;;;;;;;20.05;26.39;100599.06;4502168;31;20100;-67
2022/04/15 08:48:40;;;;;;;7.07;5.40;;;;;;;20.11;27.31;100603.25;4502009;31;20200;-67
2022/04/15 08:51:11;;;;;;;12.55;5.50;;;;;;;20.05;27.65;100596.37;4502105;31;20470;-67
2022/04/15 08:53:40;;;;;;;12.85;5.18;;;;;;;20.11;28.06;100594.38;4502305;31;20414;-67
2022/04/15 08:56:07;;;;;;;14.68;5.03;;;;;;;20.38;27.01;100602.84;4502107;31;20447;-67
2022/04/15 08:58:35;;;;;;;14.05;5.90;;;;;;;20.13;26.82;100604.03;4501987;31;20091;-67
2022/04/15 09:01:02;;;;;;;7.07;5.05;;;;;;;19.98;26.42;100600.28;4502103;31;20080;-67
2022/04/15 09:03:30;;;;;;;8.30;4.95;;;;;;;19.94;27.72;100590.69;4501950;31;20192;-67
2022/04/15 09:05:57;;;;;;;10.52;5.32;;;;;;;20.21;28.12;100598.31;4501760;31;20490;-67
2022/04/15 09:08:25;;;;;;;14.55;5.82;;;;;;;20.32;26.98;100595.09;4502076;31;20114;-67
2022/04/15 09:10:57;;;;;;;8.43;5.32;;;;;;;20.60;26.36;100602.66;4502112;31;20107;-67
2022/04/15 09:13:28;;;;;;;9.90;5.78;;;;;;;20.65;26.75;100592.63;4501984;31;20088;-67
2022/04/15 09:15:59;;;;;;;8.55;5.93;;;;;;;20.91;26.18;100588.59;4501983;31;20095;-67
2022/04/15 09:18:36;;;;;;;10.98;6.22;;;;;;;21.35;26.04;100591.69;4501927;31;20178;-67
2022/04/15 09:21:28;;;;;;;11.82;6.90;;;;;;;21.99;25.50;100583.75;4501944;31;20091;-67
2022/04/15 09:23:55;;;;;;;10.70;6.85;;;;;;;22.05;24.59;100586.06;4501772;31;20091;-67
2022/04/15 09:26:24;;;;;;;10.63;6.32;;;;;;;21.86;25.12;100587.09;4501766;31;20451;-67
2022/04/15 09:28:53;;;;;;;12.93;6.00;;;;;;;21.93;25.19;100585.81;4487147;31;20087;-67
2022/04/15 09:31:22;;;;;;;10.77;6.75;;;;;;;22.06;24.60;100579.75;4501775;31;20091;-67
2022/04/15 09:33:57;;;;;;;13.07;6.30;;;;;;;22.41;25.04;100583.16;4502022;31;20104;-67
2022/04/15 09:36:35;;;;;;;13.00;7.25;;;;;;;22.49;24.90;100578.19;4501937;31;20454;-67
2022/04/15 09:39:14;;;;;;;17.58;6.78;;;;;;;22.05;26.20;100583.38;4502208;31;20187;-67
2022/04/15 09:41:52;;;;;;;11.98;6.82;;;;;;;22.09;26.11;100584.97;4501909;31;20405;-67
2022/04/15 09:44:21;;;;;;;10.07;6.00;;;;;;;22.04;26.17;100587.00;4501939;31;20105;-67
2022/04/15 09:46:52;;;;;;;9.40;5.47;;;;;;;21.98;26.54;100584.66;4501878;31;20080;-67
2022/04/15 09:49:19;;;;;;;13.20;5.68;;;;;;;21.55;26.20;100581.69;4501781;31;20135;-67
2022/04/15 09:51:52;;;;;;;13.57;5.47;;;;;;;20.79;28.23;100579.41;4500903;31;20503;-67
2022/04/15 09:54:23;;;;;;;9.73;5.30;;;;;;;20.48;31.16;100580.03;4501754;31;20510;-67
2022/04/15 09:56:53;;;;;;;9.70;5.55;;;;;;;20.32;30.27;100574.59;4501989;31;20183;-67
2022/04/15 09:59:23;;;;;;;8.65;5.40;;;;;;;20.38;30.81;100576.06;4501915;31;20114;-67
2022/04/15 10:01:56;;;;;;;10.70;5.20;;;;;;;20.43;30.30;100574.91;4501933;31;20107;-67
2022/04/15 10:04:25;;;;;;;12.90;5.25;;;;;;;20.66;29.65;100565.75;4501818;31;20514;-67
2022/04/15 10:06:52;;;;;;;14.55;6.00;;;;;;;20.90;29.78;100555.59;4501651;31;20096;-67
2022/04/15 10:09:20;;;;;;;8.52;5.30;;;;;;;20.98;29.16;100560.56;4501677;31;20095;-67
2022/04/15 10:11:49;;;;;;;8.50;5.32;;;;;;;21.12;29.46;100563.38;4501692;31;20484;-67
2022/04/15 10:14:19;;;;;;;8.70;5.55;;;;;;;21.19;28.87;100555.87;4501798;31;20096;-67
2022/04/15 10:16:46;;;;;;;11.65;5.10;;;;;;;21.18;28.54;100548.78;4501808;31;20164;-67
2022/04/15 10:19:15;;;;;;;10.00;4.22;;;;;;;21.53;28.80;100548.75;4501762;31;20151;-67
2022/04/15 10:21:44;;;;;;;10.40;4.28;;;;;;;;;;4501741;31;20458;-67
2022/04/15 10:24:13;;;;;;;9.38;4.20;;;;;;;22.33;25.71;100545.13;4501793;31;20541;-67
2022/04/15 10:26:43;;;;;;;10.07;5.07;;;;;;;23.12;25.63;100548.44;4501558;31;20159;-67
2022/04/15 10:29:11;;;;;;;9.73;4.80;;;;;;;23.38;24.60;100548.66;4501811;31;20091;-67
2022/04/15 10:31:41;;;;;;;16.65;4.55;;;;;;;23.53;24.73;100566.53;4501743;31;20130;-67
2022/04/15 10:34:16;;;;;;;8.48;5.05;;;;;;;23.56;23.58;100574.38;4501664;31;20170;-67
2022/04/15 10:36:51;;;;;;;5.80;4.10;;;;;;;23.14;24.84;100564.47;4501632;31;20091;-67
2022/04/15 10:39:26;;;;;;;7.72;3.92;;;;;;;23.42;22.46;100568.16;4501569;31;20457;-67
2022/04/15 10:41:57;;;;;;;6.05;3.40;;;;;;;23.24;23.86;100581.78;4501413;31;20175;-67
2022/04/15 10:44:30;;;;;;;5.87;3.53;;;;;;;23.28;22.76;100575.25;4501595;31;20080;-67
2022/04/15 10:47:11;;;;;;;4.10;3.37;;;;;;;23.68;22.54;100570.09;4501449;31;20546;-67
2022/04/15 10:49:53;;;;;;;13.07;3.70;;;;;;;24.08;22.99;100572.91;4501312;31;20433;-67
2022/04/15 10:52:24;;;;;;;6.90;3.70;;;;;;;23.97;21.97;100572.75;4501305;31;20087;-67
2022/04/15 10:54:59;;;;;;;19.67;4.30;;;;;;;23.21;23.21;100579.25;4501279;31;20151;-67
2022/04/15 10:57:46;;;;;;;5.00;3.75;;;;;;;22.41;23.57;100575.09;4501209;31;20155;-67
2022/04/15 11:03:20;;;;;;;9.57;4.50;;;;;;;22.31;25.10;100568.53;4500780;31;20885;-67
2022/04/15 11:05:49;;;;;;;10.85;4.60;;;;;;;22.33;25.32;100574.66;4500946;31;20132;-67
2022/04/15 11:08:22;;;;;;;4.95;4.05;;;;;;;22.10;25.11;100575.94;4501154;31;20100;-67
2022/04/15 11:10:49;;;;;;;13.30;4.82;;;;;;;22.06;25.44;100566.34;4500853;31;20460;-67
2022/04/15 11:13:22;;;;;;;7.72;4.35;;;;;;;21.89;25.92;100578.88;4500800;31;20425;-67
2022/04/15 11:15:57;;;;;;;15.07;5.35;;;;;;;21.81;26.58;100570.41;4500816;31;20583;-67
2022/04/15 11:18:42;;;;;;;6.95;4.78;;;;;;;21.71;25.86;100567.34;4501152;31;20617;-67
2022/04/15 11:21:21;;;;;;;10.55;4.50;;;;;;;21.71;26.37;100564.66;4500979;31;20435;-67
2022/04/15 11:23:52;;;;;;;9.45;4.25;;;;;;;21.77;26.42;100570.62;4500718;31;20087;-67
2022/04/15 11:26:21;;;;;;;8.50;4.53;;;;;;;21.70;26.16;100570.13;4500725;31;20188;-67
2022/04/15 11:28:51;;;;;;;12.68;4.53;;;;;;;21.64;26.26;100575.81;4485877;31;20176;-67
2022/04/15 11:31:29;;;;;;;7.53;4.97;;;;;;;21.72;26.51;100581.62;4501038;31;20495;-67
2022/04/15 11:34:04;;;;;;;13.88;5.68;;;;;;;21.53;26.42;100576.41;4500706;31;20498;-67